createdAt,value
2022-11-28T00:02:23.097Z,220.17
2022-11-28T00:05:11.861Z,226.93
2022-11-28T00:08:01.213Z,222.13
2022-11-28T00:10:49.169Z,214.10
2022-11-28T00:13:37.776Z,207.30
2022-11-28T00:16:26.156Z,218.80
2022-11-28T00:19:15.057Z,217.17
2022-11-28T00:22:02.993Z,207.27
2022-11-28T00:24:52.560Z,201.30
2022-11-28T00:27:40.500Z,203.77
2022-11-28T00:30:28.445Z,211.43
2022-11-28T00:33:16.383Z,225.97
2022-11-28T00:36:06.193Z,223.23
2022-11-28T00:38:54.176Z,226.23
2022-11-28T00:41:44.536Z,219.00
2022-11-28T00:44:32.462Z,214.40
2022-11-28T00:47:20.369Z,229.43
2022-11-28T00:50:09.238Z,225.13
2022-11-28T00:52:57.145Z,220.57
2022-11-28T00:55:45.172Z,226.27
2022-11-28T00:58:35.356Z,218.30
2022-11-28T01:01:25.315Z,199.43
2022-11-28T01:04:15.747Z,202.07
2022-11-28T01:07:03.781Z,196.60
2022-11-28T01:09:51.746Z,223.83
2022-11-28T01:12:40.160Z,178.23
2022-11-28T01:15:29.438Z,179.50
2022-11-28T01:18:17.338Z,180.63
2022-11-28T01:21:05.984Z,183.00
2022-11-28T01:23:54.370Z,189.10
2022-11-28T01:26:43.285Z,183.47
2022-11-28T01:29:31.230Z,175.00
2022-11-28T01:32:20.536Z,166.70
2022-11-28T01:35:09.301Z,179.23
2022-11-28T01:37:57.257Z,163.43
2022-11-28T01:40:46.566Z,160.93
2022-11-28T01:43:35.346Z,149.00
2022-11-28T01:46:23.300Z,154.93
2022-11-28T01:49:15.683Z,169.70
2022-11-28T01:52:08.888Z,143.60
2022-11-28T01:55:00.497Z,146.90
2022-11-28T01:57:48.514Z,140.97
2022-11-28T02:00:36.561Z,142.63
2022-11-28T02:03:30.727Z,140.53
2022-11-28T02:06:23.123Z,135.47
2022-11-28T02:09:13.343Z,132.87
2022-11-28T02:12:23.493Z,133.37
2022-11-28T02:15:28.505Z,123.33
2022-11-28T02:18:31.901Z,146.20
2022-11-28T02:21:32.841Z,131.90
2022-11-28T02:24:52.951Z,146.40
2022-11-28T02:28:09.165Z,123.87
2022-11-28T02:31:12.297Z,135.87
2022-11-28T02:34:06.545Z,152.97
2022-11-28T02:37:04.236Z,151.40
2022-11-28T02:40:05.721Z,149.27
2022-11-28T02:43:04.715Z,149.40
2022-11-28T02:45:58.764Z,140.60
2022-11-28T02:48:51.043Z,152.43
2022-11-28T02:51:43.754Z,145.90
2022-11-28T02:54:32.605Z,138.80
2022-11-28T02:57:20.529Z,151.23
2022-11-28T03:00:28.336Z,146.43
2022-11-28T03:03:34.704Z,149.50
2022-11-28T03:06:33.449Z,149.83
2022-11-28T03:09:50.137Z,156.07
2022-11-28T03:12:52.763Z,150.33
2022-11-28T03:15:52.508Z,159.27
2022-11-28T03:18:45.981Z,157.07
2022-11-28T03:21:40.210Z,160.20
2022-11-28T03:24:36.609Z,148.33
2022-11-28T03:27:31.806Z,150.73
2022-11-28T03:30:26.495Z,151.13
2022-11-28T03:33:16.340Z,156.30
2022-11-28T03:36:09.302Z,148.00
2022-11-28T03:39:02.844Z,149.50
2022-11-28T03:41:55.018Z,157.10
2022-11-28T03:44:49.542Z,162.63
2022-11-28T03:47:41.568Z,163.50
2022-11-28T03:50:35.065Z,148.97
2022-11-28T03:53:27.598Z,138.40
2022-11-28T03:56:20.126Z,149.20
2022-11-28T03:59:14.409Z,142.07
2022-11-28T04:02:12.136Z,155.03
2022-11-28T04:05:04.684Z,149.30
2022-11-28T04:07:58.961Z,155.00
2022-11-28T04:10:56.936Z,142.90
2022-11-28T04:13:54.027Z,138.37
2022-11-28T04:16:53.634Z,135.83
2022-11-28T04:19:49.460Z,149.07
2022-11-28T04:22:43.112Z,137.57
2022-11-28T04:25:35.356Z,154.47
2022-11-28T04:28:26.855Z,149.43
2022-11-28T04:31:18.980Z,151.93
2022-11-28T04:34:09.899Z,151.00
2022-11-28T04:37:05.485Z,150.33
2022-11-28T04:39:57.796Z,145.23
2022-11-28T04:42:53.027Z,158.27
2022-11-28T04:45:47.460Z,141.30
2022-11-28T04:48:35.687Z,150.30
2022-11-28T04:51:28.945Z,149.40
2022-11-28T04:54:24.387Z,136.70
2022-11-28T04:57:17.454Z,132.97
2022-11-28T05:00:08.381Z,139.57
2022-11-28T05:02:57.841Z,137.07
2022-11-28T05:05:47.792Z,135.90
2022-11-28T05:08:35.871Z,135.73
2022-11-28T05:11:25.669Z,134.13
2022-11-28T05:14:14.098Z,135.00
2022-11-28T05:17:02.041Z,137.20
2022-11-28T05:19:49.998Z,130.07
2022-11-28T05:22:37.937Z,132.33
2022-11-28T05:25:26.060Z,133.80
2022-11-28T05:28:15.335Z,132.83
2022-11-28T05:31:04.026Z,139.60
2022-11-28T05:33:51.906Z,138.80
2022-11-28T05:36:39.853Z,131.17
2022-11-28T05:39:27.856Z,145.97
2022-11-28T05:42:15.796Z,137.27
2022-11-28T05:45:05.778Z,137.13
2022-11-28T05:47:53.699Z,144.20
2022-11-28T05:50:41.935Z,151.53
2022-11-28T05:53:29.855Z,144.40
2022-11-28T05:56:22.371Z,139.97
2022-11-28T05:59:10.299Z,157.87
2022-11-28T06:01:59.719Z,151.47
2022-11-28T06:04:47.692Z,164.20
2022-11-28T06:07:35.753Z,179.07
2022-11-28T06:10:24.007Z,180.47
2022-11-28T06:13:11.987Z,180.67
2022-11-28T06:15:59.908Z,202.10
2022-11-28T06:18:49.537Z,175.17
2022-11-28T06:21:37.714Z,177.33
2022-11-28T06:24:25.647Z,188.90
2022-11-28T06:27:13.572Z,192.03
2022-11-28T06:30:01.484Z,180.30
2022-11-28T06:32:49.439Z,206.80
2022-11-28T06:35:38.716Z,189.60
2022-11-28T06:38:26.636Z,194.40
2022-11-28T06:41:17.499Z,184.67
2022-11-28T06:44:05.677Z,188.53
2022-11-28T06:46:54.630Z,198.07
2022-11-28T06:49:42.907Z,184.70
2022-11-28T06:52:32.326Z,177.10
2022-11-28T06:55:20.267Z,178.57
2022-11-28T06:58:08.239Z,171.83
2022-11-28T07:00:56.601Z,175.77
2022-11-28T07:03:44.562Z,177.20
2022-11-28T07:06:13.026Z,190.33
2022-11-28T07:08:42.756Z,194.53
2022-11-28T07:11:12.764Z,187.80
2022-11-28T07:13:41.353Z,183.60
2022-11-28T07:16:13.354Z,176.53
2022-11-28T07:18:41.282Z,185.53
2022-11-28T07:21:09.128Z,181.37
2022-11-28T07:23:37.065Z,179.67
2022-11-28T07:26:06.611Z,194.13
2022-11-28T07:28:37.696Z,177.03
2022-11-28T07:31:07.543Z,182.53
2022-11-28T07:33:35.432Z,167.87
2022-11-28T07:36:03.746Z,177.63
2022-11-28T07:38:31.895Z,178.23
2022-11-28T07:41:04.262Z,172.90
2022-11-28T07:43:33.498Z,163.87
2022-11-28T07:46:03.763Z,160.83
2022-11-28T07:48:31.467Z,166.57
2022-11-28T07:50:59.134Z,163.73
2022-11-28T07:53:26.956Z,160.10
2022-11-28T07:55:54.632Z,188.57
2022-11-28T07:58:22.683Z,160.13
2022-11-28T08:00:51.748Z,168.40
2022-11-28T08:03:19.422Z,178.20
2022-11-28T08:05:49.571Z,175.33
2022-11-28T08:08:18.139Z,172.67
2022-11-28T08:10:47.038Z,172.73
2022-11-28T08:13:15.077Z,163.90
2022-11-28T08:15:42.985Z,170.40
2022-11-28T08:18:12.968Z,176.03
2022-11-28T08:20:40.758Z,186.73
2022-11-28T08:23:08.462Z,182.77
2022-11-28T08:25:36.163Z,193.87
2022-11-28T08:28:03.900Z,186.47
2022-11-28T08:30:31.725Z,205.57
2022-11-28T08:32:59.509Z,202.00
2022-11-28T08:35:28.710Z,211.93
2022-11-28T08:38:00.469Z,218.70
2022-11-28T08:40:29.742Z,212.17
2022-11-28T08:42:59.348Z,232.10
2022-11-28T08:45:27.166Z,242.87
2022-11-28T08:47:54.888Z,219.33
2022-11-28T08:50:22.612Z,237.07
2022-11-28T08:52:51.715Z,252.70
2022-11-28T08:55:23.657Z,263.53
2022-11-28T08:57:59.364Z,248.57
2022-11-28T09:00:27.395Z,236.87
2022-11-28T09:02:55.077Z,257.40
2022-11-28T09:05:22.773Z,271.67
2022-11-28T09:07:51.946Z,248.80
2022-11-28T09:10:19.649Z,262.17
2022-11-28T09:12:47.495Z,260.53
2022-11-28T09:15:15.253Z,277.10
2022-11-28T09:17:42.941Z,285.20
2022-11-28T09:20:11.646Z,270.67
2022-11-28T09:22:40.691Z,262.27
2022-11-28T09:25:10.448Z,280.47
2022-11-28T09:27:38.198Z,291.07
2022-11-28T09:30:07.617Z,273.67
2022-11-28T09:32:35.605Z,267.43
2022-11-28T09:35:03.644Z,274.43
2022-11-28T09:37:32.053Z,285.60
2022-11-28T09:40:13.292Z,287.73
2022-11-28T09:42:44.865Z,269.03
2022-11-28T09:45:15.832Z,272.00
2022-11-28T09:47:46.993Z,280.40
2022-11-28T09:50:19.258Z,286.93
2022-11-28T09:52:50.915Z,284.40
2022-11-28T09:55:24.415Z,278.20
2022-11-28T09:57:55.039Z,299.30
2022-11-28T10:00:29.802Z,296.60
2022-11-28T10:03:31.725Z,291.63
2022-11-28T10:06:08.314Z,288.33
2022-11-28T10:08:47.028Z,289.10
2022-11-28T10:11:27.983Z,312.07
2022-11-28T10:14:08.488Z,309.40
2022-11-28T10:16:46.629Z,299.23
2022-11-28T10:19:46.077Z,311.40
2022-11-28T10:22:12.897Z,298.00
2022-11-28T10:24:45.832Z,304.77
2022-11-28T10:27:15.462Z,295.03
2022-11-28T10:29:50.108Z,292.27
2022-11-28T10:32:19.834Z,331.73
2022-11-28T10:34:56.142Z,300.67
2022-11-28T10:37:27.603Z,317.80
2022-11-28T10:39:57.037Z,317.07
2022-11-28T10:42:29.603Z,302.27
2022-11-28T10:45:07.658Z,331.00
2022-11-28T10:47:51.888Z,318.43
2022-11-28T10:50:30.819Z,309.50
2022-11-28T10:53:04.933Z,308.47
2022-11-28T10:55:43.000Z,288.23
2022-11-28T10:58:21.208Z,286.60
2022-11-28T11:00:54.162Z,265.47
2022-11-28T11:03:27.866Z,265.60
2022-11-28T11:05:55.592Z,262.37
2022-11-28T11:08:26.025Z,252.03
2022-11-28T11:11:02.182Z,275.27
2022-11-28T11:13:32.287Z,257.17
2022-11-28T11:16:04.299Z,240.83
2022-11-28T11:18:36.141Z,275.57
2022-11-28T11:21:16.705Z,276.80
2022-11-28T11:23:45.620Z,269.57
2022-11-28T11:26:23.172Z,257.17
2022-11-28T11:28:51.968Z,260.73
2022-11-28T11:31:23.980Z,271.07
2022-11-28T11:33:54.312Z,274.63
2022-11-28T11:36:26.464Z,265.80
2022-11-28T11:39:06.367Z,270.33
2022-11-28T11:41:34.749Z,278.17
2022-11-28T11:44:35.299Z,270.57
2022-11-28T11:47:06.478Z,276.38
2022-11-28T11:49:37.292Z,279.30
2022-11-28T11:52:07.489Z,287.08
2022-11-28T11:54:35.236Z,298.95
2022-11-28T11:57:31.453Z,271.83
2022-11-28T11:59:55.553Z,255.15
2022-11-28T12:02:31.899Z,271.42
2022-11-28T12:05:04.143Z,290.50
2022-11-28T12:07:38.889Z,289.57
2022-11-28T12:10:12.256Z,295.67
2022-11-28T12:12:41.956Z,289.17
2022-11-28T12:15:16.942Z,280.77
2022-11-28T12:17:59.097Z,274.77
2022-11-28T12:20:41.390Z,275.23
2022-11-28T12:23:22.994Z,271.20
2022-11-28T12:25:57.473Z,262.03
2022-11-28T12:28:35.535Z,255.63
2022-11-28T12:31:12.540Z,245.50
2022-11-28T12:33:53.574Z,275.23
2022-11-28T12:36:29.236Z,253.00
2022-11-28T12:39:01.653Z,260.53
2022-11-28T12:41:57.631Z,252.27
2022-11-28T12:44:36.567Z,239.80
2022-11-28T12:47:13.630Z,247.60
2022-11-28T12:49:52.198Z,243.00
2022-11-28T12:52:32.752Z,233.03
2022-11-28T12:55:15.366Z,233.13
2022-11-28T12:57:50.630Z,238.27
2022-11-28T13:00:21.890Z,229.73
2022-11-28T13:03:01.060Z,239.90
2022-11-28T13:05:44.543Z,228.60
2022-11-28T13:09:02.921Z,226.27
2022-11-28T13:11:45.551Z,241.90
2022-11-28T13:14:27.041Z,228.25
2022-11-28T13:16:57.574Z,251.23
2022-11-28T13:19:35.452Z,234.13
2022-11-28T13:22:11.298Z,243.07
2022-11-28T13:24:44.964Z,254.50
2022-11-28T13:27:22.606Z,248.67
2022-11-28T13:30:14.212Z,233.37
2022-11-28T13:32:48.026Z,253.97
2022-11-28T13:35:18.410Z,252.73
2022-11-28T13:40:49.401Z,240.50
2022-11-28T13:43:25.028Z,251.43
2022-11-28T13:45:53.921Z,240.23
2022-11-28T13:51:41.536Z,266.57
2022-11-28T13:54:42.769Z,258.30
2022-11-28T13:57:21.498Z,254.83
2022-11-28T13:59:53.423Z,251.60
2022-11-28T14:02:25.017Z,238.75
2022-11-28T14:04:52.984Z,245.18
2022-11-28T14:07:29.178Z,245.77
2022-11-28T14:10:13.815Z,240.73
2022-11-28T14:12:52.658Z,232.47
2022-11-28T14:15:30.692Z,226.47
2022-11-28T14:18:54.371Z,234.37
2022-11-28T14:21:22.072Z,222.53
2022-11-28T14:23:59.119Z,231.50
2022-11-28T14:26:34.143Z,241.17
2022-11-28T14:29:04.024Z,235.93
2022-11-28T14:31:35.231Z,241.70
2022-11-28T14:34:05.143Z,234.03
2022-11-28T14:36:35.352Z,243.17
2022-11-28T14:39:10.484Z,221.50
2022-11-28T14:45:45.710Z,211.37
2022-11-28T14:48:28.507Z,241.97
2022-11-28T14:51:01.650Z,224.48
2022-11-28T14:53:45.664Z,232.03
2022-11-28T14:56:28.978Z,253.87
2022-11-28T14:58:59.595Z,236.57
2022-11-28T15:01:43.650Z,235.53
2022-11-28T15:04:32.657Z,221.95
2022-11-28T15:07:03.501Z,233.53
2022-11-28T15:09:42.671Z,231.77
2022-11-28T15:12:18.547Z,228.73
2022-11-28T15:14:52.050Z,226.07
2022-11-28T15:17:24.921Z,230.00
2022-11-28T15:19:54.826Z,220.00
2022-11-28T15:22:33.826Z,226.97
2022-11-28T15:25:01.646Z,219.63
2022-11-28T15:27:29.675Z,228.07
2022-11-28T15:30:00.524Z,215.07
2022-11-28T15:32:32.260Z,224.47
2022-11-28T15:35:10.812Z,219.43
2022-11-28T15:37:46.809Z,228.97
2022-11-28T15:40:30.212Z,221.07
2022-11-28T15:42:59.499Z,217.93
2022-11-28T15:45:30.240Z,206.33
2022-11-28T15:47:59.537Z,204.07
2022-11-28T15:50:29.247Z,215.87
2022-11-28T15:52:59.498Z,213.27
2022-11-28T15:55:30.173Z,208.13
2022-11-28T15:58:18.989Z,199.77
2022-11-28T16:00:50.674Z,206.63
2022-11-28T16:03:24.906Z,214.57
2022-11-28T16:05:55.747Z,196.43
2022-11-28T16:08:31.242Z,213.57
2022-11-28T16:11:00.478Z,213.17
2022-11-28T16:13:29.363Z,218.37
2022-11-28T16:15:58.429Z,223.33
2022-11-28T16:18:29.719Z,205.03
2022-11-28T16:20:59.255Z,226.13
2022-11-28T16:23:30.798Z,205.37
2022-11-28T16:26:03.499Z,208.53
2022-11-28T16:28:33.449Z,220.23
2022-11-28T16:31:01.451Z,197.47
2022-11-28T16:33:38.327Z,233.00
2022-11-28T16:36:10.745Z,201.13
2022-11-28T16:38:39.470Z,209.60
2022-11-28T16:41:07.324Z,200.90
2022-11-28T16:43:37.636Z,205.63
2022-11-28T16:46:07.286Z,194.17
2022-11-28T16:48:38.434Z,216.60
2022-11-28T16:51:34.801Z,208.00
2022-11-28T16:54:28.899Z,215.20
2022-11-28T16:56:58.827Z,190.93
2022-11-28T16:59:26.926Z,205.30
2022-11-28T17:01:55.281Z,189.30
2022-11-28T17:04:26.093Z,219.47
2022-11-28T17:06:55.824Z,208.93
2022-11-28T17:09:23.699Z,217.03
2022-11-28T17:11:57.512Z,224.93
2022-11-28T17:14:25.277Z,203.63
2022-11-28T17:16:53.031Z,206.87
2022-11-28T17:19:20.741Z,208.63
2022-11-28T17:21:52.402Z,229.27
2022-11-28T17:24:22.185Z,195.57
2022-11-28T17:26:51.441Z,202.40
2022-11-28T17:29:19.485Z,188.83
2022-11-28T17:31:48.355Z,194.50
2022-11-28T17:34:17.657Z,190.53
2022-11-28T17:36:45.595Z,210.27
2022-11-28T17:39:15.509Z,210.70
2022-11-28T17:41:43.641Z,185.47
2022-11-28T17:44:17.941Z,199.23
2022-11-28T17:46:45.796Z,202.63
2022-11-28T17:49:13.929Z,188.67
2022-11-28T17:51:41.908Z,207.53
2022-11-28T17:54:11.374Z,190.90
2022-11-28T17:56:40.473Z,196.90
2022-11-28T17:59:08.221Z,196.23
2022-11-28T18:01:36.198Z,197.53
2022-11-28T18:04:04.632Z,206.87
2022-11-28T18:06:32.907Z,187.83
2022-11-28T18:09:04.861Z,183.60
2022-11-28T18:11:35.870Z,196.73
2022-11-28T18:14:05.268Z,205.40
2022-11-28T18:16:35.425Z,186.77
2022-11-28T18:19:04.241Z,193.13
2022-11-28T18:21:32.404Z,203.67
2022-11-28T18:24:00.196Z,197.27
2022-11-28T18:26:27.997Z,188.60
2022-11-28T18:28:56.134Z,193.20
2022-11-28T18:31:27.805Z,201.87
2022-11-28T18:34:00.394Z,189.37
2022-11-28T18:36:31.510Z,195.77
2022-11-28T18:39:00.522Z,176.53
2022-11-28T18:41:29.240Z,200.30
2022-11-28T18:43:57.831Z,184.67
2022-11-28T18:46:28.902Z,184.03
2022-11-28T18:48:57.277Z,179.93
2022-11-28T18:51:26.919Z,190.47
2022-11-28T18:53:56.236Z,182.17
2022-11-28T18:56:25.182Z,189.30
2022-11-28T18:58:54.639Z,193.10
2022-11-28T19:01:24.996Z,191.90
2022-11-28T19:03:57.005Z,184.73
2022-11-28T19:06:24.731Z,194.73
2022-11-28T19:08:54.584Z,195.27
2022-11-28T19:11:23.141Z,205.90
2022-11-28T19:13:52.924Z,189.30
2022-11-28T19:16:22.678Z,192.37
2022-11-28T19:18:51.108Z,194.33
2022-11-28T19:21:22.527Z,197.40
2022-11-28T19:23:51.396Z,199.53
2022-11-28T19:26:22.511Z,202.07
2022-11-28T19:28:50.955Z,185.97
2022-11-28T19:31:21.172Z,198.33
2022-11-28T19:34:00.469Z,176.10
2022-11-28T19:36:31.770Z,195.63
2022-11-28T19:39:00.020Z,198.37
2022-11-28T19:41:29.112Z,195.07
2022-11-28T19:43:57.167Z,194.47
2022-11-28T19:46:26.394Z,220.73
2022-11-28T19:48:57.971Z,191.07
2022-11-28T19:51:25.831Z,206.60
2022-11-28T19:53:59.870Z,189.77
2022-11-28T19:56:31.285Z,197.67
2022-11-28T19:58:59.728Z,183.47
2022-11-28T20:01:29.216Z,211.07
2022-11-28T20:03:58.762Z,186.13
2022-11-28T20:06:28.869Z,181.00
2022-11-28T20:09:00.532Z,218.23
2022-11-28T20:11:32.151Z,198.97
2022-11-28T20:14:02.315Z,208.67
2022-11-28T20:16:31.487Z,206.30
2022-11-28T20:19:01.364Z,193.77
2022-11-28T20:21:30.017Z,214.10
2022-11-28T20:24:04.251Z,193.03
2022-11-28T20:26:35.935Z,194.73
2022-11-28T20:29:05.289Z,166.93
2022-11-28T20:31:36.646Z,197.43
2022-11-28T20:34:07.057Z,187.17
2022-11-28T20:36:35.211Z,205.23
2022-11-28T20:39:05.537Z,201.43
2022-11-28T20:41:33.746Z,184.90
2022-11-28T20:44:02.637Z,221.63
2022-11-28T20:46:32.332Z,193.23
2022-11-28T20:49:02.022Z,203.93
2022-11-28T20:51:31.920Z,196.30
2022-11-28T20:54:01.417Z,192.17
2022-11-28T20:56:41.777Z,200.13
2022-11-28T20:59:19.784Z,193.07
2022-11-28T21:01:47.852Z,183.30
2022-11-28T21:04:34.148Z,193.83
2022-11-28T21:07:22.809Z,210.53
2022-11-28T21:10:11.352Z,192.27
2022-11-28T21:13:00.693Z,187.70
2022-11-28T21:15:48.703Z,184.67
2022-11-28T21:18:38.068Z,189.87
2022-11-28T21:21:28.162Z,194.53
2022-11-28T21:24:16.177Z,193.60
2022-11-28T21:27:04.231Z,187.20
2022-11-28T21:29:53.595Z,191.47
2022-11-28T21:32:41.626Z,203.87
2022-11-28T21:35:29.694Z,181.60
2022-11-28T21:38:17.680Z,190.37
2022-11-28T21:41:05.871Z,187.93
2022-11-28T21:43:55.054Z,202.17
2022-11-28T21:46:45.629Z,191.37
2022-11-28T21:49:34.122Z,200.33
2022-11-28T21:52:24.090Z,208.53
2022-11-28T21:55:12.172Z,198.03
2022-11-28T21:58:00.511Z,180.70
2022-11-28T22:00:56.148Z,189.47
2022-11-28T22:03:47.021Z,186.23
2022-11-28T22:06:35.547Z,198.10
2022-11-28T22:09:23.748Z,201.53
2022-11-28T22:12:11.776Z,187.27
2022-11-28T22:14:59.890Z,190.73
2022-11-28T22:17:48.429Z,181.70
2022-11-28T22:20:43.633Z,177.63
2022-11-28T22:23:34.718Z,200.40
2022-11-28T22:26:23.686Z,184.80
2022-11-28T22:29:12.591Z,177.40
2022-11-28T22:32:00.810Z,180.97
2022-11-28T22:34:49.163Z,184.80
2022-11-28T22:37:40.084Z,167.20
2022-11-28T22:40:28.482Z,197.80
2022-11-28T22:43:16.470Z,189.40
2022-11-28T22:46:05.031Z,180.13
2022-11-28T22:48:53.329Z,185.67
2022-11-28T22:51:42.050Z,174.63
2022-11-28T22:54:31.462Z,173.07
2022-11-28T22:57:19.657Z,182.43
2022-11-28T23:00:10.963Z,185.53
2022-11-28T23:03:00.181Z,186.37
2022-11-28T23:05:49.440Z,199.43
2022-11-28T23:08:40.116Z,187.33
2022-11-28T23:11:33.075Z,181.40
2022-11-28T23:14:21.179Z,183.27
2022-11-28T23:17:09.513Z,198.90
2022-11-28T23:19:57.538Z,196.60
2022-11-28T23:22:45.525Z,182.70
2022-11-28T23:25:36.137Z,199.93
2022-11-28T23:28:25.686Z,179.43
2022-11-28T23:31:15.828Z,196.53
2022-11-28T23:34:05.614Z,193.33
2022-11-28T23:36:54.098Z,177.63
2022-11-28T23:39:42.127Z,173.60
2022-11-28T23:42:30.268Z,187.73
2022-11-28T23:45:19.727Z,184.20
2022-11-28T23:48:07.822Z,183.97
2022-11-28T23:50:55.857Z,195.90
2022-11-28T23:53:44.506Z,181.63
2022-11-28T23:56:35.656Z,184.70
2022-11-28T23:59:23.635Z,181.37
